Airfield :
LOGIN :

Register | Disclaimer

   EN    FR    IT 

 










Legend :    VFR   Marginal VFR   IFR   Intensive IFR   Very Intensive IFR
Visi :
Ceiling :
>= 8 km
>= 3000ft
5 to 8 km
1000 to 3000 ft
1500m to 5 km
500 to 1000 ft
800 to 1500m
200 to 500 ft
< 800m
< 200 ft
Symbols :   Thunderstorms  Fog  Heavy snow  Heavy precipitations  Wind > 20 kt
SIGMETs :     Misc.  Thunderstorms  Icing  Turbulence  Mountain Waves  Volcanic Ashes






- Airport Elevation : 392 ft
- IATA code : CDG


LFPG - Paris-Aeroport Charles De Gaulle

CURRENT METAR :
  • 270730Z 15018KT 4900 SNRA BR OVC007 03/02 Q0996 TEMPO 17015G30KT 2500 -SN

EXPIRED METARs :
  • 270700Z 17019KT 7000 RASN BKN008 03/02 Q0998 TEMPO 17020G30KT 2500 -SN
  • 270630Z 17016KT 7000 RA BKN008 03/02 Q1000 TEMPO 17015G30KT 2500 RASN
  • 270600Z 17016KT 8000 RA BKN010 03/02 Q1001 TEMPO 17015G30KT 2500 RASN BKN008
  • 270530Z 16012KT 8000 -RA FEW014 BKN020 03/02 Q1002 NOSIG
  • 270500Z 17011KT 9999 FEW026 BKN036 04/01 Q1003 NOSIG

TAF AMD TAF LFPG
Valid from the 27 at 06:00 until the 28 at 12:00 UTC


270626Z 2706/2812 17015G30KT 9999 BKN030 TX10/2712Z TN00/2806Z
TEMPO 2706/2710 3500 RA BKN008
PROB40
TEMPO 2706/2709 2500 RASN
PROB30
TEMPO 2706/2709 -SN
BECMG 2710/2712 27020G40KT
PROB40
TEMPO 2713/2714 30025G50KT SCT020TCU
BECMG 2717/2719 CAVOK
ATIS : +33 1 48 62 10 92



MET'MAP, your aeronautical weather chart ! - Copyright ORBIFLY December 2007 - Disclaimer

ORBIFLY MET'MAP TEAM :

Programming & Development : Alexandra Zaïnal
Concept & original design : Baudouin d'Aumeries
Assistance for programming : Marc-Olivier Méhu
Technical & hardware support : Manuel Goepfert

Contact : metmap@orbifly.com




SOURCES & CREDITS :

   NOAA